createdAt,value
2022-11-10T00:01:18.033Z,10.94
2022-11-10T00:03:44.230Z,10.86
2022-11-10T00:06:10.352Z,10.85
2022-11-10T00:08:36.440Z,10.90
2022-11-10T00:11:02.748Z,10.87
2022-11-10T00:13:28.829Z,10.87
2022-11-10T00:15:54.936Z,10.83
2022-11-10T00:18:21.069Z,10.90
2022-11-10T00:20:47.173Z,10.91
2022-11-10T00:23:13.280Z,10.93
2022-11-10T00:25:39.389Z,10.89
2022-11-10T00:28:05.501Z,10.92
2022-11-10T00:30:31.598Z,10.86
2022-11-10T00:32:57.717Z,10.83
2022-11-10T00:35:23.817Z,10.83
2022-11-10T00:37:49.908Z,10.81
2022-11-10T00:40:16.024Z,10.86
2022-11-10T00:42:42.111Z,10.84
2022-11-10T00:45:08.189Z,10.84
2022-11-10T00:47:34.308Z,10.86
2022-11-10T00:50:00.392Z,10.87
2022-11-10T00:52:26.475Z,10.91
2022-11-10T00:54:52.591Z,10.92
2022-11-10T00:57:18.681Z,10.89
2022-11-10T00:59:44.782Z,10.91
2022-11-10T01:02:10.912Z,10.92
2022-11-10T01:04:37.002Z,10.92
2022-11-10T01:07:03.138Z,10.94
2022-11-10T01:09:29.271Z,10.91
2022-11-10T01:11:55.357Z,10.95
2022-11-10T01:14:21.458Z,10.97
2022-11-10T01:16:47.572Z,10.95
2022-11-10T01:19:13.657Z,10.98
2022-11-10T01:21:39.741Z,10.90
2022-11-10T01:24:05.895Z,10.93
2022-11-10T01:26:32.084Z,10.92
2022-11-10T01:28:58.179Z,10.90
2022-11-10T01:31:25.841Z,10.85
2022-11-10T01:33:51.937Z,10.79
2022-11-10T01:36:18.044Z,10.86
2022-11-10T01:38:44.168Z,10.83
2022-11-10T01:41:10.283Z,10.80
2022-11-10T01:43:36.365Z,10.89
2022-11-10T01:46:02.962Z,10.86
2022-11-10T01:48:29.058Z,10.83
2022-11-10T01:50:55.148Z,10.86
2022-11-10T01:53:21.604Z,10.85
2022-11-10T01:55:47.832Z,10.86
2022-11-10T01:58:13.929Z,10.87
2022-11-10T02:00:40.087Z,10.84
2022-11-10T02:03:06.228Z,10.85
2022-11-10T02:05:32.324Z,10.85
2022-11-10T02:07:58.450Z,10.78
2022-11-10T02:10:24.533Z,10.78
2022-11-10T02:12:50.646Z,10.84
2022-11-10T02:15:16.756Z,10.85
2022-11-10T02:17:42.859Z,10.85
2022-11-10T02:20:08.969Z,10.93
2022-11-10T02:22:35.087Z,10.82
2022-11-10T02:25:01.186Z,10.73
2022-11-10T02:27:27.283Z,10.82
2022-11-10T02:29:53.407Z,10.80
2022-11-10T02:32:19.510Z,10.83
2022-11-10T02:34:45.599Z,10.86
2022-11-10T02:37:11.701Z,10.80
2022-11-10T02:39:37.812Z,10.72
2022-11-10T02:42:03.896Z,10.72
2022-11-10T02:44:30.010Z,10.78
2022-11-10T02:46:56.107Z,10.70
2022-11-10T02:49:22.195Z,10.75
2022-11-10T02:51:48.304Z,10.77
2022-11-10T02:54:14.393Z,10.79
2022-11-10T02:56:40.475Z,10.75
2022-11-10T02:59:06.665Z,10.78
2022-11-10T03:01:32.931Z,10.72
2022-11-10T03:03:59.068Z,10.76
2022-11-10T03:06:25.183Z,10.75
2022-11-10T03:08:51.286Z,10.76
2022-11-10T03:11:17.397Z,10.72
2022-11-10T03:14:00.398Z,10.72
2022-11-10T03:16:27.855Z,10.74
2022-11-10T03:18:53.969Z,10.75
2022-11-10T03:21:20.103Z,10.66
2022-11-10T03:23:46.188Z,10.65
2022-11-10T03:26:12.581Z,10.66
2022-11-10T03:28:38.677Z,10.66
2022-11-10T03:31:04.783Z,10.62
2022-11-10T03:33:30.901Z,10.63
2022-11-10T03:35:56.999Z,10.61
2022-11-10T03:38:23.089Z,10.54
2022-11-10T03:41:18.924Z,10.58
2022-11-10T03:43:35.296Z,10.50
2022-11-10T03:46:01.417Z,10.55
2022-11-10T03:48:27.516Z,10.52
2022-11-10T03:50:53.603Z,10.55
2022-11-10T03:53:20.509Z,10.59
2022-11-10T03:55:46.750Z,10.50
2022-11-10T03:58:12.897Z,10.56
2022-11-10T04:00:39.004Z,10.56
2022-11-10T04:03:05.091Z,10.49
2022-11-10T04:05:31.180Z,10.52
2022-11-10T04:07:57.312Z,10.57
2022-11-10T04:10:23.400Z,10.52
2022-11-10T04:12:49.488Z,10.51
2022-11-10T04:15:15.606Z,10.53
2022-11-10T04:17:41.712Z,10.48
2022-11-10T04:20:07.824Z,10.43
2022-11-10T04:22:33.941Z,10.41
2022-11-10T04:25:00.047Z,10.48
2022-11-10T04:27:26.157Z,10.55
2022-11-10T04:29:52.270Z,10.44
2022-11-10T04:32:18.372Z,10.49
2022-11-10T04:34:44.474Z,10.43
2022-11-10T04:37:10.590Z,10.50
2022-11-10T04:39:36.687Z,10.53
2022-11-10T04:42:03.121Z,10.48
2022-11-10T04:44:29.317Z,10.48
2022-11-10T04:46:55.419Z,10.51
2022-11-10T04:49:21.533Z,10.53
2022-11-10T04:51:47.696Z,10.52
2022-11-10T04:54:13.849Z,10.51
2022-11-10T04:56:39.945Z,10.54
2022-11-10T04:59:06.112Z,10.50
2022-11-10T05:01:32.209Z,10.51
2022-11-10T05:03:58.319Z,10.55
2022-11-10T05:06:24.431Z,10.53
2022-11-10T05:08:50.524Z,10.53
2022-11-10T05:11:16.623Z,10.53
2022-11-10T05:13:42.756Z,10.48
2022-11-10T05:16:08.847Z,10.48
2022-11-10T05:18:34.941Z,10.54
2022-11-10T05:21:01.067Z,10.53
2022-11-10T05:23:27.151Z,10.50
2022-11-10T05:25:53.250Z,10.44
2022-11-10T05:28:19.637Z,10.49
2022-11-10T05:30:45.739Z,10.49
2022-11-10T05:33:11.830Z,10.45
2022-11-10T05:35:37.986Z,10.42
2022-11-10T05:38:04.102Z,10.35
2022-11-10T05:40:30.204Z,10.35
2022-11-10T05:42:56.329Z,10.33
2022-11-10T05:45:22.434Z,10.28
2022-11-10T05:47:48.515Z,10.30
2022-11-10T05:50:14.641Z,10.29
2022-11-10T05:52:40.733Z,10.32
2022-11-10T05:55:06.828Z,10.34
2022-11-10T05:57:32.943Z,10.28
2022-11-10T05:59:59.047Z,10.35
2022-11-10T06:02:25.145Z,10.36
2022-11-10T06:04:51.267Z,10.35
2022-11-10T06:07:17.436Z,10.37
2022-11-10T06:09:43.578Z,10.38
2022-11-10T06:12:09.685Z,10.35
2022-11-10T06:14:35.778Z,10.39
2022-11-10T06:17:01.860Z,10.41
2022-11-10T06:19:27.968Z,10.41
2022-11-10T06:22:01.350Z,10.43
2022-11-10T06:24:29.848Z,10.38
2022-11-10T06:26:55.945Z,10.40
2022-11-10T06:29:26.644Z,10.40
2022-11-10T06:31:53.153Z,10.46
2022-11-10T06:34:19.237Z,10.41
2022-11-10T06:36:45.331Z,10.38
2022-11-10T06:39:11.490Z,10.42
2022-11-10T06:41:37.583Z,10.39
2022-11-10T06:44:03.681Z,10.40
2022-11-10T06:46:29.801Z,10.41
2022-11-10T06:48:55.913Z,10.39
2022-11-10T06:51:22.009Z,10.39
2022-11-10T06:53:48.124Z,10.44
2022-11-10T06:56:14.238Z,10.44
2022-11-10T06:58:40.329Z,10.36
2022-11-10T07:01:06.585Z,10.41
2022-11-10T07:03:32.705Z,10.40
2022-11-10T07:05:58.807Z,10.48
2022-11-10T07:08:24.928Z,10.46
2022-11-10T07:10:51.031Z,10.41
2022-11-10T07:13:17.129Z,10.41
2022-11-10T07:15:43.239Z,10.39
2022-11-10T07:18:09.333Z,10.39
2022-11-10T07:20:35.427Z,10.42
2022-11-10T07:23:01.548Z,10.39
2022-11-10T07:25:27.654Z,10.38
2022-11-10T07:27:53.762Z,10.37
2022-11-10T07:30:19.896Z,10.35
2022-11-10T07:32:45.997Z,10.35
2022-11-10T07:35:12.079Z,10.42
2022-11-10T07:37:38.200Z,10.50
2022-11-10T07:40:04.303Z,10.45
2022-11-10T07:42:30.411Z,10.36
2022-11-10T07:44:56.511Z,10.44
2022-11-10T07:47:22.601Z,10.47
2022-11-10T07:49:48.678Z,10.42
2022-11-10T07:52:14.817Z,10.51
2022-11-10T07:54:40.914Z,10.52
2022-11-10T07:57:07.000Z,10.49
2022-11-10T07:59:33.115Z,10.43
2022-11-10T08:01:59.253Z,10.50
2022-11-10T08:04:25.390Z,10.48
2022-11-10T08:06:51.606Z,10.41
2022-11-10T08:09:17.760Z,10.47
2022-11-10T08:11:43.898Z,10.56
2022-11-10T08:14:10.023Z,10.62
2022-11-10T08:16:36.114Z,10.53
2022-11-10T08:19:02.297Z,10.60
2022-11-10T08:21:28.407Z,10.69
2022-11-10T08:23:54.503Z,10.79
2022-11-10T08:26:21.111Z,10.80
2022-11-10T08:28:47.235Z,10.87
2022-11-10T08:31:13.325Z,10.80
2022-11-10T08:33:39.422Z,10.74
2022-11-10T08:36:05.567Z,10.72
2022-11-10T08:38:31.654Z,10.75
2022-11-10T08:40:57.751Z,10.78
2022-11-10T08:43:24.788Z,10.87
2022-11-10T08:45:51.214Z,10.90
2022-11-10T08:48:17.315Z,11.04
2022-11-10T08:50:43.425Z,11.05
2022-11-10T08:53:09.525Z,11.01
2022-11-10T08:55:35.667Z,11.03
2022-11-10T08:58:01.787Z,11.15
2022-11-10T09:00:27.925Z,11.11
2022-11-10T09:02:54.038Z,11.07
2022-11-10T09:05:20.141Z,10.97
2022-11-10T09:07:46.251Z,11.12
2022-11-10T09:10:12.348Z,11.16
2022-11-10T09:12:38.467Z,11.22
2022-11-10T09:15:04.572Z,11.15
2022-11-10T09:17:30.664Z,11.18
2022-11-10T09:19:56.853Z,11.36
2022-11-10T09:22:22.952Z,11.29
2022-11-10T09:24:49.071Z,11.37
2022-11-10T09:27:15.174Z,11.25
2022-11-10T09:29:41.259Z,11.40
2022-11-10T09:32:07.353Z,11.43
2022-11-10T09:34:33.481Z,11.43
2022-11-10T09:36:59.593Z,11.46
2022-11-10T09:39:25.683Z,11.45
2022-11-10T09:41:51.781Z,11.54
2022-11-10T09:44:17.875Z,11.60
2022-11-10T09:46:43.963Z,11.64
2022-11-10T09:49:10.198Z,11.64
2022-11-10T09:51:36.316Z,11.63
2022-11-10T09:54:02.421Z,11.73
2022-11-10T09:56:28.547Z,11.64
2022-11-10T09:58:54.636Z,11.88
2022-11-10T10:01:20.766Z,11.83
2022-11-10T10:03:46.894Z,11.84
2022-11-10T10:06:13.004Z,11.86
2022-11-10T10:08:39.100Z,11.99
2022-11-10T10:11:05.707Z,12.04
2022-11-10T10:13:31.804Z,12.13
2022-11-10T10:15:57.895Z,12.12
2022-11-10T10:18:24.177Z,12.16
2022-11-10T10:20:50.532Z,12.26
2022-11-10T10:23:16.629Z,12.34
2022-11-10T10:25:42.749Z,12.34
2022-11-10T10:28:08.846Z,12.37
2022-11-10T10:30:34.942Z,12.45
2022-11-10T10:33:01.060Z,12.42
2022-11-10T10:35:27.165Z,12.29
2022-11-10T10:37:53.258Z,12.24
2022-11-10T10:40:19.367Z,12.31
2022-11-10T10:42:45.457Z,12.37
2022-11-10T10:45:11.599Z,12.31
2022-11-10T10:47:37.749Z,12.31
2022-11-10T10:50:03.842Z,12.42
2022-11-10T10:52:29.933Z,12.60
2022-11-10T10:54:56.045Z,12.48
2022-11-10T10:57:22.140Z,12.54
2022-11-10T10:59:48.237Z,12.56
2022-11-10T11:02:14.341Z,12.56
2022-11-10T11:04:40.430Z,12.59
2022-11-10T11:07:06.554Z,12.50
2022-11-10T11:09:32.713Z,12.62
2022-11-10T11:11:58.921Z,12.70
2022-11-10T11:14:25.017Z,12.70
2022-11-10T11:16:51.612Z,12.87
2022-11-10T11:19:17.791Z,12.98
2022-11-10T11:21:43.888Z,12.97
2022-11-10T11:24:10.005Z,13.03
2022-11-10T11:26:36.088Z,13.14
2022-11-10T11:29:02.172Z,13.00
2022-11-10T11:31:28.282Z,12.77
2022-11-10T11:33:54.379Z,12.84
2022-11-10T11:36:20.459Z,12.92
2022-11-10T11:38:46.575Z,12.90
2022-11-10T11:41:12.669Z,13.03
2022-11-10T11:43:38.767Z,13.05
2022-11-10T11:46:04.925Z,13.07
2022-11-10T11:48:31.021Z,13.13
2022-11-10T11:50:57.111Z,13.20
2022-11-10T11:53:23.215Z,13.13
2022-11-10T11:55:49.304Z,13.08
2022-11-10T11:58:15.410Z,13.24
2022-11-10T12:00:41.532Z,13.07
2022-11-10T12:03:07.619Z,13.09
2022-11-10T12:05:33.729Z,13.11
2022-11-10T12:07:59.848Z,13.05
2022-11-10T12:10:25.950Z,12.98
2022-11-10T12:12:52.057Z,13.13
2022-11-10T12:15:18.255Z,13.17
2022-11-10T12:17:44.666Z,13.21
2022-11-10T12:20:10.789Z,13.20
2022-11-10T12:22:36.896Z,13.20
2022-11-10T12:25:03.088Z,13.19
2022-11-10T12:27:29.181Z,13.20
2022-11-10T12:29:55.305Z,13.12
2022-11-10T12:32:21.400Z,13.18
2022-11-10T12:34:47.504Z,13.19
2022-11-10T12:37:13.654Z,13.17
2022-11-10T12:39:39.812Z,13.13
2022-11-10T12:42:06.096Z,13.14
2022-11-10T12:44:32.224Z,13.21
2022-11-10T12:46:58.311Z,13.32
2022-11-10T12:49:24.416Z,13.46
2022-11-10T12:51:50.537Z,13.54
2022-11-10T12:54:17.124Z,13.48
2022-11-10T12:56:43.259Z,13.42
2022-11-10T12:59:09.500Z,13.32
2022-11-10T13:01:35.667Z,13.33
2022-11-10T13:04:01.891Z,13.38
2022-11-10T13:06:28.092Z,13.41
2022-11-10T13:08:54.219Z,13.46
2022-11-10T13:11:20.332Z,13.50
2022-11-10T13:13:46.511Z,13.55
2022-11-10T13:16:12.624Z,13.59
2022-11-10T13:18:38.724Z,13.61
2022-11-10T13:21:04.886Z,13.53
2022-11-10T13:23:31.001Z,13.50
2022-11-10T13:25:57.101Z,13.51
2022-11-10T13:28:23.774Z,13.51
2022-11-10T13:30:49.989Z,13.56
2022-11-10T13:33:16.096Z,13.63
2022-11-10T13:35:42.210Z,13.61
2022-11-10T13:38:08.309Z,13.66
2022-11-10T13:40:34.405Z,13.64
2022-11-10T13:43:00.518Z,13.59
2022-11-10T13:45:26.622Z,13.62
2022-11-10T13:47:52.726Z,13.58
2022-11-10T13:50:18.849Z,13.63
2022-11-10T13:52:44.952Z,13.70
2022-11-10T13:55:16.008Z,13.66
2022-11-10T13:57:42.570Z,13.62
2022-11-10T14:00:08.734Z,13.63
2022-11-10T14:02:34.887Z,13.67
2022-11-10T14:05:01.058Z,13.70
2022-11-10T14:07:27.159Z,13.66
2022-11-10T14:09:53.263Z,13.69
2022-11-10T14:12:19.370Z,13.68
2022-11-10T14:14:45.485Z,13.76
2022-11-10T14:17:11.582Z,13.72
2022-11-10T14:19:37.693Z,13.77
2022-11-10T14:22:03.839Z,13.74
2022-11-10T14:24:29.947Z,13.69
2022-11-10T14:26:56.203Z,13.74
2022-11-10T14:29:22.307Z,13.66
2022-11-10T14:31:48.407Z,13.64
2022-11-10T14:34:14.525Z,13.59
2022-11-10T14:36:40.608Z,13.61
2022-11-10T14:39:06.699Z,13.59
2022-11-10T14:41:32.813Z,13.61
2022-11-10T14:43:58.917Z,13.61
2022-11-10T14:46:25.009Z,13.66
2022-11-10T14:48:51.141Z,13.60
2022-11-10T14:51:17.247Z,13.57
2022-11-10T14:53:43.341Z,13.49
2022-11-10T14:56:10.017Z,13.48
2022-11-10T14:58:36.117Z,13.51
2022-11-10T15:01:02.212Z,13.49
2022-11-10T15:03:28.316Z,13.43
2022-11-10T15:05:54.418Z,13.33
2022-11-10T15:08:20.880Z,13.27
2022-11-10T15:10:47.499Z,13.22
2022-11-10T15:13:13.592Z,13.18
2022-11-10T15:15:39.686Z,13.13
2022-11-10T15:18:05.801Z,13.08
2022-11-10T15:20:31.943Z,12.96
2022-11-10T15:22:58.057Z,12.98
2022-11-10T15:25:24.168Z,12.78
2022-11-10T15:27:51.251Z,12.83
2022-11-10T15:30:17.423Z,12.74
2022-11-10T15:32:43.680Z,12.72
2022-11-10T15:35:09.779Z,12.66
2022-11-10T15:37:35.879Z,12.63
2022-11-10T15:40:02.005Z,12.53
2022-11-10T15:42:28.091Z,12.49
2022-11-10T15:44:54.193Z,12.49
2022-11-10T15:47:20.303Z,12.46
2022-11-10T15:49:46.407Z,12.35
2022-11-10T15:52:12.505Z,12.40
2022-11-10T15:54:38.727Z,12.32
2022-11-10T15:57:04.826Z,12.24
2022-11-10T15:59:30.924Z,12.24
2022-11-10T16:01:57.146Z,12.24
2022-11-10T16:04:23.342Z,12.15
2022-11-10T16:06:49.456Z,12.06
2022-11-10T16:09:15.581Z,12.03
2022-11-10T16:11:41.684Z,11.94
2022-11-10T16:14:07.772Z,11.96
2022-11-10T16:16:33.877Z,11.95
2022-11-10T16:18:59.962Z,11.94
2022-11-10T16:21:26.053Z,11.84
2022-11-10T16:23:52.186Z,11.80
2022-11-10T16:26:18.290Z,11.71
2022-11-10T16:28:44.405Z,11.73
2022-11-10T16:31:11.012Z,11.67
2022-11-10T16:33:37.101Z,11.71
2022-11-10T16:36:03.207Z,11.66
2022-11-10T16:38:29.320Z,11.65
2022-11-10T16:40:55.420Z,11.57
2022-11-10T16:43:21.519Z,11.49
2022-11-10T16:45:47.719Z,11.50
2022-11-10T16:48:13.810Z,11.49
2022-11-10T16:50:39.911Z,11.46
2022-11-10T16:53:06.024Z,11.47
2022-11-10T16:55:32.118Z,11.35
2022-11-10T16:57:58.225Z,11.27
2022-11-10T17:00:25.346Z,11.24
2022-11-10T17:02:51.718Z,11.25
2022-11-10T17:05:17.806Z,11.24
2022-11-10T17:07:43.924Z,11.25
2022-11-10T17:10:10.018Z,11.22
2022-11-10T17:12:36.252Z,11.21
2022-11-10T17:15:02.457Z,11.09
2022-11-10T17:17:28.560Z,11.08
2022-11-10T17:19:54.657Z,11.05
2022-11-10T17:22:20.776Z,11.08
2022-11-10T17:24:46.874Z,11.06
2022-11-10T17:27:12.957Z,10.98
2022-11-10T17:29:39.053Z,10.99
2022-11-10T17:32:05.147Z,10.98
2022-11-10T17:34:31.252Z,10.91
2022-11-10T17:36:57.848Z,10.89
2022-11-10T17:39:23.927Z,10.87
2022-11-10T17:41:50.020Z,10.81
2022-11-10T17:44:16.147Z,10.81
2022-11-10T17:46:42.246Z,10.83
2022-11-10T17:49:08.372Z,10.77
2022-11-10T17:51:34.498Z,10.75
2022-11-10T17:54:00.596Z,10.73
2022-11-10T17:56:26.702Z,10.69
2022-11-10T17:58:52.877Z,10.64
2022-11-10T18:01:19.067Z,10.63
2022-11-10T18:03:45.218Z,10.57
2022-11-10T18:06:11.876Z,10.59
2022-11-10T18:08:37.981Z,10.60
2022-11-10T18:11:04.074Z,10.52
2022-11-10T18:13:30.186Z,10.51
2022-11-10T18:15:56.288Z,10.49
2022-11-10T18:18:22.379Z,10.47
2022-11-10T18:20:48.497Z,10.48
2022-11-10T18:23:14.580Z,10.44
2022-11-10T18:25:40.680Z,10.40
2022-11-10T18:28:06.783Z,10.39
2022-11-10T18:30:35.231Z,10.38
2022-11-10T18:33:01.768Z,10.35
2022-11-10T18:35:27.910Z,10.34
2022-11-10T18:37:54.172Z,10.28
2022-11-10T18:40:20.447Z,10.24
2022-11-10T18:42:46.742Z,10.27
2022-11-10T18:45:12.881Z,10.15
2022-11-10T18:47:38.972Z,10.15
2022-11-10T18:50:05.081Z,10.15
2022-11-10T18:52:31.184Z,10.15
2022-11-10T18:54:57.290Z,10.10
2022-11-10T18:57:23.401Z,10.12
2022-11-10T18:59:49.509Z,10.02
2022-11-10T19:02:15.610Z,10.09
2022-11-10T19:04:41.737Z,10.04
2022-11-10T19:07:07.867Z,9.98
2022-11-10T19:09:34.009Z,9.97
2022-11-10T19:12:00.126Z,9.95
2022-11-10T19:14:26.224Z,9.97
2022-11-10T19:16:52.309Z,9.97
2022-11-10T19:19:18.422Z,9.98
2022-11-10T19:21:44.538Z,9.92
2022-11-10T19:24:10.651Z,9.97
2022-11-10T19:26:36.819Z,9.97
2022-11-10T19:29:02.908Z,9.94
2022-11-10T19:31:29.014Z,9.90
2022-11-10T19:33:55.141Z,9.86
2022-11-10T19:36:21.229Z,9.88
2022-11-10T19:38:47.321Z,9.78
2022-11-10T19:41:13.723Z,9.78
2022-11-10T19:43:42.477Z,9.73
2022-11-10T19:46:12.406Z,9.71
2022-11-10T19:48:38.518Z,9.67
2022-11-10T19:51:04.611Z,9.64
2022-11-10T19:53:30.709Z,9.69
2022-11-10T19:55:56.813Z,9.64
2022-11-10T19:58:22.920Z,9.63
2022-11-10T20:00:49.012Z,9.58
2022-11-10T20:03:15.111Z,9.55
2022-11-10T20:05:41.205Z,9.54
2022-11-10T20:08:09.812Z,9.61
2022-11-10T20:10:37.219Z,9.59
2022-11-10T20:13:03.307Z,9.53
2022-11-10T20:15:29.399Z,9.56
2022-11-10T20:17:55.501Z,9.43
2022-11-10T20:20:21.606Z,9.40
2022-11-10T20:22:47.713Z,9.37
2022-11-10T20:25:13.826Z,9.38
2022-11-10T20:27:39.921Z,9.37
2022-11-10T20:30:06.021Z,9.42
2022-11-10T20:32:32.138Z,9.42
2022-11-10T20:34:58.246Z,9.38
2022-11-10T20:37:24.346Z,9.43
2022-11-10T20:39:50.472Z,9.49
2022-11-10T20:42:16.565Z,9.45
2022-11-10T20:44:42.653Z,9.48
2022-11-10T20:47:09.092Z,9.48
2022-11-10T20:49:35.214Z,9.46
2022-11-10T20:52:01.403Z,9.45
2022-11-10T20:54:27.518Z,9.44
2022-11-10T20:56:53.611Z,9.45
2022-11-10T20:59:19.711Z,9.47
2022-11-10T21:01:45.862Z,9.42
2022-11-10T21:04:11.998Z,9.44
2022-11-10T21:06:38.149Z,9.46
2022-11-10T21:09:04.282Z,9.45
2022-11-10T21:11:32.467Z,9.45
2022-11-10T21:13:58.890Z,9.47
2022-11-10T21:16:25.932Z,9.48
2022-11-10T21:18:52.030Z,9.46
2022-11-10T21:21:18.124Z,9.45
2022-11-10T21:23:44.230Z,9.47
2022-11-10T21:26:10.329Z,9.45
2022-11-10T21:28:36.434Z,9.49
2022-11-10T21:31:02.552Z,9.46
2022-11-10T21:33:28.649Z,9.51
2022-11-10T21:35:54.864Z,9.51
2022-11-10T21:38:20.981Z,9.52
2022-11-10T21:40:47.083Z,9.51
2022-11-10T21:43:13.177Z,9.55
2022-11-10T21:45:39.330Z,9.50
2022-11-10T21:48:05.448Z,9.50
2022-11-10T21:50:31.541Z,9.51
2022-11-10T21:52:57.646Z,9.52
2022-11-10T21:55:23.737Z,9.54
2022-11-10T21:57:49.920Z,9.50
2022-11-10T22:00:16.029Z,9.46
2022-11-10T22:02:42.119Z,9.42
2022-11-10T22:05:08.210Z,9.47
2022-11-10T22:07:34.321Z,9.45
2022-11-10T22:10:00.417Z,9.46
2022-11-10T22:12:26.507Z,9.48
2022-11-10T22:14:52.639Z,9.47
2022-11-10T22:17:18.732Z,9.45
2022-11-10T22:19:44.825Z,9.45
2022-11-10T22:22:10.923Z,9.42
2022-11-10T22:24:37.016Z,9.42
2022-11-10T22:27:03.149Z,9.39
2022-11-10T22:29:31.665Z,9.34
2022-11-10T22:31:58.158Z,9.36
2022-11-10T22:34:24.252Z,9.39
2022-11-10T22:36:50.370Z,9.37
2022-11-10T22:39:16.468Z,9.41
2022-11-10T22:41:42.555Z,9.42
2022-11-10T22:44:08.679Z,9.40
2022-11-10T22:46:34.781Z,9.41
2022-11-10T22:49:00.869Z,9.41
2022-11-10T22:51:27.051Z,9.38
2022-11-10T22:53:53.140Z,9.40
2022-11-10T22:56:19.232Z,9.37
2022-11-10T22:58:45.339Z,9.38
2022-11-10T23:01:11.544Z,9.39
2022-11-10T23:03:37.692Z,9.41
2022-11-10T23:06:03.814Z,9.42
2022-11-10T23:08:29.931Z,9.36
2022-11-10T23:10:56.021Z,9.41
2022-11-10T23:13:22.424Z,9.38
2022-11-10T23:15:48.706Z,9.43
2022-11-10T23:18:14.794Z,9.42
2022-11-10T23:20:41.553Z,9.49
2022-11-10T23:23:07.650Z,9.44
2022-11-10T23:25:33.763Z,9.45
2022-11-10T23:27:59.873Z,9.42
2022-11-10T23:30:25.961Z,9.44
2022-11-10T23:32:52.049Z,9.46
2022-11-10T23:35:18.181Z,9.47
2022-11-10T23:37:44.289Z,9.49
2022-11-10T23:40:10.428Z,9.47
2022-11-10T23:42:36.541Z,9.52
2022-11-10T23:45:02.659Z,9.49
2022-11-10T23:47:28.751Z,9.52
2022-11-10T23:49:54.907Z,9.55
2022-11-10T23:52:20.995Z,9.53
2022-11-10T23:54:47.104Z,9.56
2022-11-10T23:57:13.505Z,9.56
2022-11-10T23:59:39.596Z,9.56
